createdAt,value
2019-03-25T00:01:59.544Z,55.30
2019-03-25T00:04:28.695Z,54.80
2019-03-25T00:06:57.719Z,54.50
2019-03-25T00:09:26.809Z,55.00
2019-03-25T00:11:55.741Z,54.60
2019-03-25T00:14:24.817Z,54.20
2019-03-25T00:16:54.293Z,53.70
2019-03-25T00:19:23.094Z,54.20
2019-03-25T00:21:52.370Z,53.70
2019-03-25T00:24:21.419Z,53.70
2019-03-25T00:26:50.604Z,53.10
2019-03-25T00:29:19.513Z,54.00
2019-03-25T00:31:48.868Z,52.80
2019-03-25T00:34:17.736Z,51.60
2019-03-25T00:36:46.935Z,52.00
2019-03-25T00:39:16.137Z,51.40
2019-03-25T00:41:45.191Z,50.80
2019-03-25T00:44:14.020Z,50.00
2019-03-25T00:46:42.963Z,50.30
2019-03-25T00:49:11.909Z,50.20
2019-03-25T00:51:41.126Z,50.10
2019-03-25T00:54:09.996Z,48.80
2019-03-25T00:56:39.198Z,47.50
2019-03-25T00:59:08.616Z,46.40
2019-03-25T01:01:37.773Z,45.80
2019-03-25T01:04:06.604Z,46.30
2019-03-25T01:06:35.874Z,47.00
2019-03-25T01:09:06.210Z,47.40
2019-03-25T01:11:35.203Z,48.60
2019-03-25T01:14:04.034Z,49.20
2019-03-25T01:16:33.159Z,49.90
2019-03-25T01:19:02.120Z,50.00
2019-03-25T01:21:31.327Z,49.30
2019-03-25T01:24:00.138Z,48.70
2019-03-25T01:26:29.064Z,47.70
2019-03-25T01:28:58.088Z,47.30
2019-03-25T01:31:26.975Z,44.40
2019-03-25T01:33:55.789Z,44.70
2019-03-25T01:36:25.721Z,44.00
2019-03-25T01:38:54.971Z,43.80
2019-03-25T01:41:24.473Z,43.30
2019-03-25T01:43:53.602Z,43.20
2019-03-25T01:46:22.482Z,43.20
2019-03-25T01:48:51.328Z,43.80
2019-03-25T01:51:20.124Z,44.10
2019-03-25T01:53:49.169Z,44.20
2019-03-25T01:56:17.978Z,43.80
2019-03-25T01:58:47.206Z,44.40
2019-03-25T02:01:17.080Z,44.50
2019-03-25T02:03:45.990Z,44.50
2019-03-25T02:06:14.889Z,45.20
2019-03-25T02:08:44.080Z,45.20
2019-03-25T02:11:12.940Z,45.30
2019-03-25T02:13:41.842Z,45.70
2019-03-25T02:16:10.842Z,45.90
2019-03-25T02:18:41.148Z,46.40
2019-03-25T02:21:09.936Z,46.60
2019-03-25T02:23:38.756Z,46.30
2019-03-25T02:26:07.635Z,46.70
2019-03-25T02:28:36.429Z,46.70
2019-03-25T02:31:05.230Z,46.90
2019-03-25T02:33:34.012Z,47.10
2019-03-25T02:36:04.328Z,47.40
2019-03-25T02:38:33.771Z,47.20
2019-03-25T02:41:02.948Z,47.20
2019-03-25T02:43:31.756Z,46.90
2019-03-25T02:46:00.897Z,46.30
2019-03-25T02:48:29.765Z,45.90
2019-03-25T02:50:58.610Z,46.20
2019-03-25T02:53:27.451Z,46.30
2019-03-25T02:55:56.526Z,46.20
2019-03-25T02:58:25.417Z,45.80
2019-03-25T03:00:54.409Z,45.00
2019-03-25T03:03:23.731Z,45.30
2019-03-25T03:05:52.599Z,44.90
2019-03-25T03:08:21.430Z,45.30
2019-03-25T03:10:50.545Z,45.00
2019-03-25T03:13:19.445Z,45.40
2019-03-25T03:15:48.233Z,45.40
2019-03-25T03:18:17.188Z,45.30
2019-03-25T03:20:46.125Z,45.30
2019-03-25T03:23:15.097Z,45.80
2019-03-25T03:25:56.401Z,46.00
2019-03-25T03:28:14.690Z,45.60
2019-03-25T03:30:43.917Z,45.60
2019-03-25T03:33:12.945Z,46.00
2019-03-25T03:35:41.889Z,45.80
2019-03-25T03:38:10.671Z,45.00
2019-03-25T03:40:39.483Z,45.10
2019-03-25T03:43:08.284Z,45.60
2019-03-25T03:45:37.134Z,45.50
2019-03-25T03:48:05.974Z,45.60
2019-03-25T03:50:35.296Z,45.40
2019-03-25T03:53:04.126Z,45.10
2019-03-25T03:55:33.062Z,45.40
2019-03-25T03:58:03.369Z,45.40
2019-03-25T04:00:35.515Z,44.80
2019-03-25T04:03:04.607Z,45.20
2019-03-25T04:05:33.389Z,45.00
2019-03-25T04:08:03.291Z,45.40
2019-03-25T04:10:32.371Z,45.80
2019-03-25T04:13:01.130Z,45.70
2019-03-25T04:15:31.438Z,46.00
2019-03-25T04:18:00.388Z,45.80
2019-03-25T04:20:29.283Z,46.40
2019-03-25T04:22:58.093Z,46.20
2019-03-25T04:25:27.460Z,46.60
2019-03-25T04:27:57.288Z,47.40
2019-03-25T04:30:26.283Z,47.00
2019-03-25T04:32:55.146Z,47.10
2019-03-25T04:35:23.907Z,47.00
2019-03-25T04:37:56.201Z,46.90
2019-03-25T04:40:23.863Z,47.50
2019-03-25T04:42:52.852Z,47.80
2019-03-25T04:45:21.849Z,48.10
2019-03-25T04:47:50.668Z,47.80
2019-03-25T04:50:19.863Z,48.30
2019-03-25T04:52:48.744Z,48.80
2019-03-25T04:55:17.750Z,48.90
2019-03-25T04:57:46.890Z,49.00
2019-03-25T05:00:17.676Z,49.00
2019-03-25T05:02:46.493Z,49.20
2019-03-25T05:05:15.458Z,49.40
2019-03-25T05:07:44.293Z,49.20
2019-03-25T05:10:13.103Z,49.40
2019-03-25T05:12:41.936Z,49.30
2019-03-25T05:15:10.774Z,49.70
2019-03-25T05:17:39.619Z,49.40
2019-03-25T05:20:08.430Z,49.80
2019-03-25T05:22:37.399Z,49.80
2019-03-25T05:25:06.356Z,49.70
2019-03-25T05:27:35.170Z,50.30
2019-03-25T05:30:04.303Z,50.60
2019-03-25T05:32:33.332Z,50.40
2019-03-25T05:35:02.166Z,50.50
2019-03-25T05:37:31.202Z,50.80
2019-03-25T05:39:59.972Z,50.50
2019-03-25T05:42:28.983Z,50.90
2019-03-25T05:44:57.825Z,50.70
2019-03-25T05:47:26.647Z,51.00
2019-03-25T05:49:55.544Z,51.20
2019-03-25T05:52:24.465Z,51.50
2019-03-25T05:54:53.326Z,51.50
2019-03-25T05:57:22.451Z,51.50
2019-03-25T05:59:51.760Z,51.00
2019-03-25T06:02:20.670Z,50.90
2019-03-25T06:04:49.498Z,51.40
2019-03-25T06:07:18.837Z,50.70
2019-03-25T06:09:47.795Z,49.90
2019-03-25T06:12:16.890Z,50.40
2019-03-25T06:14:46.142Z,50.30
2019-03-25T06:17:15.539Z,50.00
2019-03-25T06:19:44.449Z,49.50
2019-03-25T06:22:13.222Z,49.90
2019-03-25T06:24:42.072Z,49.40
2019-03-25T06:27:14.403Z,48.90
2019-03-25T06:29:42.108Z,47.50
2019-03-25T06:32:11.215Z,48.10
2019-03-25T06:34:39.984Z,48.10
2019-03-25T06:37:08.774Z,47.10
2019-03-25T06:39:38.142Z,46.70
2019-03-25T06:42:06.942Z,47.20
2019-03-25T06:44:35.740Z,46.40
2019-03-25T06:47:04.754Z,47.00
2019-03-25T06:49:33.507Z,45.80
2019-03-25T06:52:02.555Z,46.40
2019-03-25T06:54:31.601Z,46.00
2019-03-25T06:57:00.502Z,45.40
2019-03-25T06:59:31.032Z,45.30
2019-03-25T07:01:59.798Z,44.50
2019-03-25T07:04:29.160Z,44.50
2019-03-25T07:06:58.109Z,44.40
2019-03-25T07:09:27.189Z,43.20
2019-03-25T07:11:56.065Z,43.40
2019-03-25T07:14:24.851Z,43.40
2019-03-25T07:16:53.991Z,43.30
2019-03-25T07:19:22.761Z,43.50
2019-03-25T07:21:51.547Z,43.30
2019-03-25T07:24:20.812Z,43.30
2019-03-25T07:26:49.626Z,42.90
2019-03-25T07:29:18.779Z,42.40
2019-03-25T07:31:47.563Z,42.50
2019-03-25T07:34:16.341Z,42.90
2019-03-25T07:36:45.159Z,42.90
2019-03-25T07:39:13.946Z,43.20
2019-03-25T07:41:42.763Z,42.60
2019-03-25T07:44:11.539Z,43.00
2019-03-25T07:46:40.316Z,43.00
2019-03-25T07:49:10.885Z,42.60
2019-03-25T07:51:39.779Z,43.20
2019-03-25T07:54:08.874Z,42.50
2019-03-25T07:56:37.665Z,42.10
2019-03-25T07:59:06.739Z,42.60
2019-03-25T08:01:35.558Z,42.10
2019-03-25T08:04:04.581Z,42.60
2019-03-25T08:06:33.441Z,43.10
2019-03-25T08:09:04.016Z,42.80
2019-03-25T08:11:33.246Z,42.20
2019-03-25T08:14:02.125Z,42.50
2019-03-25T08:16:31.466Z,43.00
2019-03-25T08:19:00.276Z,41.60
2019-03-25T08:21:29.570Z,42.00
2019-03-25T08:23:58.434Z,41.60
2019-03-25T08:26:27.268Z,41.80
2019-03-25T08:28:56.452Z,41.00
2019-03-25T08:31:25.332Z,40.90
2019-03-25T08:33:54.146Z,40.70
2019-03-25T08:36:22.894Z,39.60
2019-03-25T08:38:51.716Z,39.60
2019-03-25T08:41:20.818Z,39.10
2019-03-25T08:43:50.471Z,38.80
2019-03-25T08:46:19.527Z,38.70
2019-03-25T08:48:48.566Z,38.70
2019-03-25T08:51:17.789Z,38.60
2019-03-25T08:53:46.592Z,38.50
2019-03-25T08:56:15.444Z,38.70
2019-03-25T08:58:44.492Z,38.70
2019-03-25T09:01:13.899Z,38.70
2019-03-25T09:03:42.727Z,38.70
2019-03-25T09:06:11.578Z,38.10
2019-03-25T09:08:40.385Z,38.40
2019-03-25T09:11:09.444Z,38.50
2019-03-25T09:13:38.283Z,39.20
2019-03-25T09:16:17.569Z,39.50
2019-03-25T09:18:46.379Z,39.10
2019-03-25T09:21:15.285Z,38.90
2019-03-25T09:23:44.155Z,40.10
2019-03-25T09:28:41.679Z,40.40
2019-03-25T09:31:15.856Z,40.10
2019-03-25T09:33:45.591Z,39.50
2019-03-25T09:36:15.846Z,38.80
2019-03-25T09:38:47.448Z,39.30
2019-03-25T09:41:16.337Z,39.80
2019-03-25T09:43:45.169Z,40.30
2019-03-25T09:46:14.309Z,40.40
2019-03-25T09:48:43.123Z,40.70
2019-03-25T09:51:11.972Z,41.10
2019-03-25T09:53:40.959Z,41.70
2019-03-25T09:56:10.038Z,42.10
2019-03-25T09:58:39.180Z,44.00
2019-03-25T10:01:08.986Z,43.70
2019-03-25T10:03:37.770Z,42.90
2019-03-25T10:06:06.887Z,43.30
2019-03-25T10:08:37.249Z,43.40
2019-03-25T10:11:06.163Z,43.30
2019-03-25T10:13:34.947Z,43.50
2019-03-25T10:16:03.873Z,44.10
2019-03-25T10:18:32.689Z,43.70
2019-03-25T10:21:01.902Z,43.60
2019-03-25T10:23:31.148Z,43.10
2019-03-25T10:26:00.189Z,43.30
2019-03-25T10:28:29.282Z,42.90
2019-03-25T10:30:59.535Z,42.90
2019-03-25T10:33:28.909Z,41.20
2019-03-25T10:35:57.663Z,41.10
2019-03-25T10:38:26.570Z,40.80
2019-03-25T10:40:55.401Z,40.60
2019-03-25T10:43:24.354Z,41.10
2019-03-25T10:45:53.601Z,41.30
2019-03-25T10:48:22.450Z,41.40
2019-03-25T10:50:51.372Z,41.30
2019-03-25T10:53:20.317Z,40.30
2019-03-25T10:55:49.165Z,39.10
2019-03-25T10:58:18.292Z,38.20
2019-03-25T11:00:47.090Z,38.20
2019-03-25T11:03:16.277Z,39.00
2019-03-25T11:05:45.141Z,39.10
2019-03-25T11:08:13.959Z,39.20
2019-03-25T11:10:42.883Z,37.90
2019-03-25T11:13:12.143Z,38.20
2019-03-25T11:15:41.036Z,37.00
2019-03-25T11:18:10.248Z,37.30
2019-03-25T11:20:39.093Z,36.70
2019-03-25T11:23:08.325Z,37.00
2019-03-25T11:25:37.123Z,36.90
2019-03-25T11:28:05.968Z,38.50
2019-03-25T11:30:55.723Z,41.50
2019-03-25T11:33:24.516Z,43.50
2019-03-25T11:35:53.325Z,46.10
2019-03-25T11:38:22.267Z,45.20
2019-03-25T11:40:51.825Z,43.40
2019-03-25T11:43:20.821Z,40.50
2019-03-25T11:45:49.577Z,39.40
2019-03-25T11:48:18.954Z,39.70
2019-03-25T11:50:47.871Z,38.70
2019-03-25T11:53:17.608Z,40.40
2019-03-25T11:55:46.683Z,41.00
2019-03-25T11:58:15.955Z,41.00
2019-03-25T12:00:45.139Z,40.40
2019-03-25T12:03:13.917Z,41.30
2019-03-25T12:05:42.975Z,41.40
2019-03-25T12:08:11.771Z,39.70
2019-03-25T12:10:40.581Z,38.20
2019-03-25T12:13:09.712Z,37.70
2019-03-25T12:15:38.771Z,37.10
2019-03-25T12:18:07.583Z,35.90
2019-03-25T12:20:36.429Z,39.00
2019-03-25T12:23:05.877Z,39.10
2019-03-25T12:25:35.068Z,40.80
2019-03-25T12:28:04.025Z,42.60
2019-03-25T12:30:32.888Z,45.90
2019-03-25T12:33:04.204Z,47.90
2019-03-25T12:35:32.990Z,47.70
2019-03-25T12:38:01.813Z,45.30
2019-03-25T12:40:30.807Z,45.80
2019-03-25T12:42:59.651Z,44.00
2019-03-25T12:45:28.620Z,42.80
2019-03-25T12:47:58.461Z,41.40
2019-03-25T12:50:27.756Z,40.70
2019-03-25T12:52:57.679Z,41.20
2019-03-25T12:55:27.283Z,43.90
2019-03-25T12:57:56.215Z,50.70
2019-03-25T13:00:44.443Z,56.00
2019-03-25T13:03:13.668Z,60.00
2019-03-25T13:05:42.747Z,64.40
2019-03-25T13:08:11.757Z,65.00
2019-03-25T13:10:41.214Z,65.50
2019-03-25T13:13:10.069Z,65.50
2019-03-25T13:15:39.946Z,64.00
2019-03-25T13:18:08.777Z,65.70
2019-03-25T13:20:37.908Z,62.70
2019-03-25T13:23:06.792Z,61.70
2019-03-25T13:25:35.621Z,61.30
2019-03-25T13:28:04.448Z,59.30
2019-03-25T13:30:34.944Z,56.90
2019-03-25T13:33:04.242Z,56.00
2019-03-25T13:35:33.140Z,49.50
2019-03-25T13:38:02.160Z,47.50
2019-03-25T13:40:31.382Z,44.50
2019-03-25T13:43:00.245Z,43.60
2019-03-25T13:45:31.949Z,38.80
2019-03-25T13:48:01.822Z,41.30
2019-03-25T13:50:31.117Z,37.90
2019-03-25T13:52:59.998Z,34.90
2019-03-25T13:55:28.879Z,34.10
2019-03-25T13:57:57.917Z,31.10
2019-03-25T14:00:41.795Z,30.40
2019-03-25T14:03:10.965Z,30.90
2019-03-25T14:05:39.874Z,29.50
2019-03-25T14:08:08.882Z,31.10
2019-03-25T14:10:38.078Z,32.10
2019-03-25T14:13:06.966Z,33.20
2019-03-25T14:15:36.046Z,38.80
2019-03-25T14:18:04.813Z,48.10
2019-03-25T14:20:34.074Z,59.50
2019-03-25T14:23:02.994Z,59.80
2019-03-25T14:25:32.469Z,63.90
2019-03-25T14:28:01.344Z,67.00
2019-03-25T14:30:30.176Z,69.10
2019-03-25T14:33:03.534Z,67.80
2019-03-25T14:35:32.498Z,68.50
2019-03-25T14:38:01.605Z,68.50
2019-03-25T14:40:30.634Z,68.80
2019-03-25T14:43:00.292Z,64.70
2019-03-25T14:45:29.475Z,59.50
2019-03-25T14:47:58.540Z,52.50
2019-03-25T14:50:27.311Z,48.40
2019-03-25T14:52:57.524Z,44.40
2019-03-25T14:55:26.554Z,40.50
2019-03-25T14:57:55.409Z,39.30
2019-03-25T15:00:25.657Z,37.80
2019-03-25T15:02:55.311Z,37.00
2019-03-25T15:05:24.742Z,36.70
2019-03-25T15:07:53.531Z,36.30
2019-03-25T15:10:22.311Z,30.00
2019-03-25T15:12:51.317Z,29.10
2019-03-25T15:15:20.189Z,29.80
2019-03-25T15:17:49.269Z,30.80
2019-03-25T15:20:19.506Z,30.60
2019-03-25T15:22:48.298Z,31.80
2019-03-25T15:25:17.573Z,32.40
2019-03-25T15:27:46.518Z,32.50
2019-03-25T15:30:15.785Z,34.60
2019-03-25T15:32:44.677Z,33.90
2019-03-25T15:35:13.510Z,34.30
2019-03-25T15:37:42.634Z,34.80
2019-03-25T15:40:11.792Z,36.20
2019-03-25T15:42:40.984Z,37.80
2019-03-25T15:45:09.856Z,37.80
2019-03-25T15:47:39.272Z,39.80
2019-03-25T15:50:09.548Z,42.10
2019-03-25T15:52:38.611Z,42.70
2019-03-25T15:55:10.629Z,39.00
2019-03-25T15:57:39.997Z,38.20
2019-03-25T16:00:14.747Z,38.70
2019-03-25T16:02:43.561Z,40.10
2019-03-25T16:05:12.809Z,42.10
2019-03-25T16:07:42.054Z,42.30
2019-03-25T16:10:11.033Z,43.40
2019-03-25T16:12:40.322Z,43.90
2019-03-25T16:15:09.262Z,42.80
2019-03-25T16:17:38.052Z,42.00
2019-03-25T16:20:07.182Z,41.60
2019-03-25T16:22:36.184Z,38.50
2019-03-25T16:25:05.081Z,38.10
2019-03-25T16:30:03.896Z,36.10
2019-03-25T16:32:32.845Z,32.00
2019-03-25T16:35:01.639Z,33.50
2019-03-25T16:37:30.811Z,34.70
2019-03-25T16:39:59.750Z,37.10
2019-03-25T16:42:28.520Z,40.80
2019-03-25T16:44:57.329Z,43.40
2019-03-25T16:47:26.437Z,44.90
2019-03-25T16:49:55.594Z,46.50
2019-03-25T16:52:24.494Z,45.00
2019-03-25T16:54:53.400Z,44.30
2019-03-25T16:57:22.178Z,44.80
2019-03-25T16:59:51.039Z,42.30
2019-03-25T17:02:21.255Z,43.30
2019-03-25T17:04:50.433Z,45.10
2019-03-25T17:07:19.319Z,45.60
2019-03-25T17:09:48.542Z,47.30
2019-03-25T17:12:17.380Z,47.50
2019-03-25T17:14:46.418Z,47.10
2019-03-25T17:17:15.247Z,47.40
2019-03-25T17:19:44.095Z,48.30
2019-03-25T17:22:12.930Z,48.70
2019-03-25T17:24:42.059Z,49.40
2019-03-25T17:27:11.126Z,48.80
2019-03-25T17:29:39.983Z,49.80
2019-03-25T17:32:08.944Z,50.20
2019-03-25T17:34:37.818Z,50.00
2019-03-25T17:37:08.264Z,50.50
2019-03-25T17:39:37.828Z,49.60
2019-03-25T17:42:07.172Z,50.10
2019-03-25T17:44:36.473Z,51.20
2019-03-25T17:47:05.924Z,51.30
2019-03-25T17:49:35.179Z,50.80
2019-03-25T17:52:05.498Z,51.30
2019-03-25T17:54:34.275Z,51.90
2019-03-25T17:57:03.108Z,52.40
2019-03-25T18:02:00.455Z,52.20
2019-03-25T18:04:29.330Z,52.60
2019-03-25T18:06:58.221Z,52.60
2019-03-25T18:09:27.215Z,50.80
2019-03-25T18:11:56.724Z,50.50
2019-03-25T18:14:25.976Z,50.50
2019-03-25T18:16:54.974Z,49.90
2019-03-25T18:19:23.935Z,50.00
2019-03-25T18:21:53.146Z,49.60
2019-03-25T18:24:22.064Z,49.40
2019-03-25T18:26:50.938Z,49.50
2019-03-25T18:29:19.706Z,50.00
2019-03-25T18:31:51.123Z,49.50
2019-03-25T18:34:20.000Z,49.20
2019-03-25T18:36:49.964Z,49.70
2019-03-25T18:39:19.077Z,50.60
2019-03-25T18:41:48.169Z,49.60
2019-03-25T18:44:17.298Z,49.50
2019-03-25T18:46:46.197Z,49.90
2019-03-25T18:49:15.450Z,48.70
2019-03-25T18:51:44.606Z,49.20
2019-03-25T18:54:13.589Z,48.40
2019-03-25T18:56:42.397Z,48.90
2019-03-25T18:59:11.862Z,49.50
2019-03-25T19:01:40.934Z,50.40
2019-03-25T19:04:09.871Z,50.70
2019-03-25T19:06:41.918Z,51.00
2019-03-25T19:09:10.751Z,48.70
2019-03-25T19:11:39.566Z,49.30
2019-03-25T19:14:08.422Z,49.80
2019-03-25T19:16:37.417Z,48.70
2019-03-25T19:19:06.207Z,49.20
2019-03-25T19:21:35.111Z,49.70
2019-03-25T19:24:04.302Z,49.10
2019-03-25T19:26:33.660Z,49.00
2019-03-25T19:29:02.478Z,48.40
2019-03-25T19:31:31.303Z,48.80
2019-03-25T19:34:00.116Z,49.20
2019-03-25T19:36:28.963Z,49.30
2019-03-25T19:38:58.194Z,50.00
2019-03-25T19:41:32.437Z,50.50
2019-03-25T19:43:58.006Z,50.90
2019-03-25T19:46:28.013Z,52.10
2019-03-25T19:48:56.947Z,52.70
2019-03-25T19:51:26.110Z,53.80
2019-03-25T19:53:55.338Z,54.60
2019-03-25T19:56:25.002Z,55.70
2019-03-25T19:58:54.367Z,56.80
2019-03-25T20:01:24.560Z,57.00
2019-03-25T20:03:53.675Z,57.90
2019-03-25T20:06:26.303Z,58.70
2019-03-25T20:08:53.718Z,59.70
2019-03-25T20:11:22.853Z,60.30
2019-03-25T20:13:52.366Z,61.60
2019-03-25T20:16:21.600Z,62.30
2019-03-25T20:18:50.755Z,63.60
2019-03-25T20:21:19.749Z,65.00
2019-03-25T20:23:50.475Z,66.60
2019-03-25T20:26:19.977Z,66.80
2019-03-25T20:28:50.466Z,67.50
2019-03-25T20:31:19.686Z,68.90
2019-03-25T20:33:48.755Z,69.40
2019-03-25T20:36:17.685Z,69.70
2019-03-25T20:38:49.386Z,70.30
2019-03-25T20:41:17.481Z,70.60
2019-03-25T20:43:46.546Z,70.50
2019-03-25T20:46:15.862Z,70.90
2019-03-25T20:48:44.850Z,71.00
2019-03-25T20:51:13.853Z,71.30
2019-03-25T20:53:43.077Z,71.20
2019-03-25T20:56:12.337Z,71.60
2019-03-25T20:58:41.369Z,72.10
2019-03-25T21:01:10.619Z,72.50
2019-03-25T21:03:39.954Z,73.20
2019-03-25T21:06:09.176Z,72.60
2019-03-25T21:08:38.382Z,72.50
2019-03-25T21:11:09.107Z,73.50
2019-03-25T21:13:38.763Z,73.00
2019-03-25T21:16:07.796Z,73.60
2019-03-25T21:18:37.154Z,74.70
2019-03-25T21:21:06.860Z,74.60
2019-03-25T21:23:36.381Z,74.80
2019-03-25T21:26:05.193Z,74.40
2019-03-25T21:28:34.303Z,74.90
2019-03-25T21:31:03.158Z,75.50
2019-03-25T21:33:32.245Z,76.00
2019-03-25T21:36:01.488Z,76.80
2019-03-25T21:38:30.679Z,76.00
2019-03-25T21:40:59.496Z,76.60
2019-03-25T21:43:28.397Z,76.90
2019-03-25T21:45:57.400Z,77.20
2019-03-25T21:48:26.288Z,77.70
2019-03-25T21:50:56.339Z,76.60
2019-03-25T21:53:25.208Z,77.30
2019-03-25T21:55:54.419Z,77.80
2019-03-25T21:58:24.335Z,77.80
2019-03-25T22:00:53.592Z,77.80
2019-03-25T22:03:22.402Z,78.40
2019-03-25T22:05:51.354Z,77.20
2019-03-25T22:08:20.596Z,77.80
2019-03-25T22:10:49.514Z,78.30
2019-03-25T22:13:18.307Z,78.30
2019-03-25T22:15:48.529Z,77.30
2019-03-25T22:18:17.436Z,77.80
2019-03-25T22:20:48.015Z,78.10
2019-03-25T22:23:17.075Z,78.50
2019-03-25T22:28:14.571Z,78.90
2019-03-25T22:30:43.484Z,79.60
2019-03-25T22:33:24.839Z,78.90
2019-03-25T22:35:43.376Z,78.40
2019-03-25T22:38:12.513Z,78.40
2019-03-25T22:40:41.307Z,78.90
2019-03-25T22:43:10.160Z,78.60
2019-03-25T22:45:38.947Z,79.10
2019-03-25T22:48:08.104Z,79.20
2019-03-25T22:50:38.764Z,78.60
2019-03-25T22:53:07.859Z,77.90
2019-03-25T22:55:36.705Z,78.40
2019-03-25T22:58:06.024Z,77.70
2019-03-25T23:00:45.666Z,78.10
2019-03-25T23:03:17.079Z,78.40
2019-03-25T23:05:45.938Z,78.10
2019-03-25T23:08:15.288Z,78.30
2019-03-25T23:10:44.126Z,78.20
2019-03-25T23:13:13.234Z,78.60
2019-03-25T23:15:42.420Z,76.70
2019-03-25T23:18:11.691Z,75.90
2019-03-25T23:20:41.672Z,76.40
2019-03-25T23:23:10.541Z,76.90
2019-03-25T23:28:08.240Z,76.60
2019-03-25T23:30:37.834Z,76.50
2019-03-25T23:38:03.709Z,76.00
2019-03-25T23:40:32.580Z,76.60
2019-03-25T23:43:02.557Z,75.90
2019-03-25T23:45:31.482Z,76.60
2019-03-25T23:48:00.412Z,76.50
2019-03-25T23:50:29.688Z,75.90
2019-03-25T23:52:59.126Z,76.70
2019-03-25T23:55:27.953Z,76.60
2019-03-25T23:57:56.844Z,76.10
